ENNM/OSY METAR and TAF weather

Enter ICAO airport designator
Station Type Date Time Source
ENNM METAR 2019/02/22 20:50 UTC NOAA

ENNM 222050Z 02004KT 270V060 7000 -RADZ BKN018 01/01 Q1027


Station Type Date Time Source
ENNM Decoded METAR 2019/02/22 20:50 UTC NOAA

Namsos Lufthavn, Norway (ENNM) 64-28N 011-35E 2M
Feb 22, 2019 - 03:50 PM EST / 2019.02.22 2050 UTC
Wind: from the NNE (020 degrees) at 5 MPH (4 KT) (direction variable):0
Visibility: 4 mile(s):0
Sky conditions: mostly cloudy
Weather: light rain, drizzle
Temperature: 33 F (1 C)
Windchill: 28 F (-2 C):1
Dew Point: 33 F (1 C)
Relative Humidity: 100%
Pressure (altimeter): 30.33 in. Hg (1027 hPa)
ob: ENNM 222050Z 02004KT 270V060 7000 -RADZ BKN018 01/01 Q1027
cycle: 21

Station Type Date Time Source
ENNM TAF UTC NOAA

Error!


Example: see airport list